createdAt,value
2022-09-17T00:03:21.101Z,1.50
2022-09-17T00:08:22.731Z,1.80
2022-09-17T00:13:24.762Z,2.08
2022-09-17T00:18:26.789Z,1.35
2022-09-17T00:23:28.490Z,2.10
2022-09-17T00:28:30.103Z,1.52
2022-09-17T00:33:31.704Z,3.05
2022-09-17T00:38:34.207Z,2.05
2022-09-17T00:43:51.664Z,1.50
2022-09-17T00:48:55.234Z,1.75
2022-09-17T00:53:57.130Z,2.10
2022-09-17T00:59:01.575Z,2.20
2022-09-17T01:04:03.852Z,1.33
2022-09-17T01:09:14.499Z,2.42
2022-09-17T01:14:47.961Z,1.67
2022-09-17T01:20:01.691Z,2.53
2022-09-17T01:25:25.062Z,4.28
2022-09-17T01:30:35.544Z,3.47
2022-09-17T01:36:10.879Z,1.98
2022-09-17T01:41:24.866Z,2.30
2022-09-17T01:46:36.037Z,1.67
2022-09-17T01:51:42.352Z,2.10
2022-09-17T01:56:55.089Z,1.48
2022-09-17T02:02:03.672Z,1.67
2022-09-17T02:07:20.177Z,2.15
2022-09-17T02:12:29.781Z,1.45
2022-09-17T02:17:44.380Z,1.98
2022-09-17T02:23:01.644Z,1.13
2022-09-17T02:28:27.093Z,1.40
2022-09-17T02:33:31.989Z,1.33
2022-09-17T02:38:33.661Z,1.60
2022-09-17T02:43:45.295Z,2.10
2022-09-17T02:49:08.830Z,1.52
2022-09-17T02:54:32.299Z,1.52
2022-09-17T03:00:03.112Z,1.65
2022-09-17T03:05:07.553Z,1.65
2022-09-17T03:10:09.402Z,2.42
2022-09-17T03:15:11.122Z,3.97
2022-09-17T03:20:12.848Z,1.55
2022-09-17T03:25:14.734Z,1.80
2022-09-17T03:30:16.388Z,1.08
2022-09-17T03:35:18.145Z,1.27
2022-09-17T03:40:20.093Z,1.30
2022-09-17T03:45:21.881Z,1.42
2022-09-17T03:50:23.664Z,1.77
2022-09-17T03:55:25.333Z,1.33
2022-09-17T04:00:27.374Z,1.80
2022-09-17T04:05:28.973Z,1.50
2022-09-17T04:10:30.581Z,1.90
2022-09-17T04:15:32.209Z,1.60
2022-09-17T04:20:34.296Z,1.75
2022-09-17T04:25:35.886Z,1.63
2022-09-17T04:30:37.636Z,1.85
2022-09-17T04:35:39.286Z,1.52
2022-09-17T04:40:42.408Z,1.55
2022-09-17T04:45:48.137Z,1.63
2022-09-17T04:50:49.887Z,1.90
2022-09-17T04:55:51.600Z,3.30
2022-09-17T05:00:53.240Z,2.55
2022-09-17T05:05:54.902Z,3.17
2022-09-17T05:10:56.668Z,3.80
2022-09-17T05:15:58.431Z,2.53
2022-09-17T05:21:00.078Z,2.10
2022-09-17T05:26:01.743Z,2.42
2022-09-17T05:31:03.825Z,2.03
2022-09-17T05:36:05.821Z,1.88
2022-09-17T05:41:07.534Z,1.80
2022-09-17T05:46:09.309Z,1.77
2022-09-17T05:51:11.740Z,1.60
2022-09-17T05:56:13.446Z,1.58
2022-09-17T06:01:16.320Z,1.63
2022-09-17T06:06:18.176Z,1.98
2022-09-17T06:11:19.787Z,1.95
2022-09-17T06:16:24.749Z,1.48
2022-09-17T06:21:26.426Z,1.38
2022-09-17T06:26:28.041Z,1.50
2022-09-17T06:31:29.690Z,1.48
2022-09-17T06:36:31.307Z,1.92
2022-09-17T06:41:33.299Z,1.55
2022-09-17T06:46:36.630Z,1.70
2022-09-17T06:51:38.322Z,1.20
2022-09-17T06:56:39.919Z,0.77
2022-09-17T07:01:41.837Z,1.33
2022-09-17T07:06:44.041Z,0.82
2022-09-17T07:11:45.847Z,0.95
2022-09-17T07:16:47.507Z,0.80
2022-09-17T07:21:49.318Z,1.60
2022-09-17T07:26:51.711Z,1.52
2022-09-17T07:31:56.190Z,2.78
2022-09-17T07:36:57.780Z,3.47
2022-09-17T07:41:59.876Z,4.05
2022-09-17T07:47:01.566Z,4.15
2022-09-17T07:52:06.485Z,5.03
2022-09-17T07:57:08.188Z,4.80
2022-09-17T08:02:14.107Z,4.32
2022-09-17T08:07:15.845Z,4.97
2022-09-17T08:12:19.510Z,4.47
2022-09-17T08:17:21.099Z,4.25
2022-09-17T08:22:22.688Z,4.35
2022-09-17T08:27:24.268Z,4.10
2022-09-17T08:32:26.501Z,4.43
2022-09-17T08:37:30.851Z,3.95
2022-09-17T08:42:51.635Z,3.90
2022-09-17T08:48:05.126Z,4.32
2022-09-17T08:53:21.253Z,3.65
2022-09-17T08:58:46.928Z,3.15
2022-09-17T09:04:22.021Z,3.28
2022-09-17T09:09:28.495Z,2.92
2022-09-17T09:14:47.290Z,1.80
2022-09-17T09:19:50.073Z,2.00
2022-09-17T09:25:05.711Z,2.08
2022-09-17T09:30:13.513Z,2.15
2022-09-17T09:35:27.539Z,2.13
2022-09-17T09:40:39.308Z,2.38
2022-09-17T09:45:56.888Z,2.33
2022-09-17T09:51:09.812Z,2.95
2022-09-17T09:56:33.097Z,2.13
2022-09-17T10:01:40.985Z,2.10
2022-09-17T10:06:42.810Z,1.35
2022-09-17T10:12:00.239Z,2.22
2022-09-17T10:17:26.794Z,1.75
2022-09-17T10:22:40.094Z,1.67
2022-09-17T10:27:45.510Z,1.70
2022-09-17T10:33:17.516Z,1.17
2022-09-17T10:38:39.352Z,1.25
2022-09-17T10:43:41.770Z,1.05
2022-09-17T10:49:05.999Z,1.23
2022-09-17T10:54:25.993Z,1.55
2022-09-17T10:59:53.235Z,1.58
2022-09-17T11:05:33.070Z,2.20
2022-09-17T11:10:52.770Z,1.42
2022-09-17T11:16:05.342Z,1.80
2022-09-17T11:21:19.708Z,2.42
2022-09-17T11:26:37.534Z,2.50
2022-09-17T11:32:01.048Z,2.42
2022-09-17T11:37:27.053Z,1.88
2022-09-17T11:42:39.349Z,1.92
2022-09-17T11:47:59.006Z,1.75
2022-09-17T11:53:10.674Z,1.60
2022-09-17T11:58:43.904Z,2.35
2022-09-17T12:03:54.623Z,2.45
2022-09-17T12:09:06.273Z,1.55
2022-09-17T12:14:26.969Z,1.75
2022-09-17T12:19:37.604Z,2.08
2022-09-17T12:24:40.441Z,2.45
2022-09-17T12:29:59.658Z,1.73
2022-09-17T12:35:53.082Z,1.73
2022-09-17T12:41:16.068Z,2.33
2022-09-17T12:46:39.123Z,2.38
2022-09-17T12:51:55.431Z,2.42
2022-09-17T12:57:12.157Z,1.85
2022-09-17T13:02:30.952Z,2.17
2022-09-17T13:07:52.718Z,2.22
2022-09-17T13:13:04.991Z,1.85
2022-09-17T13:18:26.166Z,2.28
2022-09-17T13:23:40.645Z,2.08
2022-09-17T13:28:47.444Z,1.67
2022-09-17T13:33:58.286Z,1.70
2022-09-17T13:39:02.201Z,1.60
2022-09-17T13:44:05.809Z,1.20
2022-09-17T13:49:16.435Z,1.92
2022-09-17T13:54:21.124Z,1.70
2022-09-17T13:59:27.047Z,1.85
2022-09-17T14:04:48.436Z,1.48
2022-09-17T14:09:59.495Z,1.42
2022-09-17T14:15:01.193Z,2.10
2022-09-17T14:20:05.531Z,1.90
2022-09-17T14:25:16.998Z,1.50
2022-09-17T14:30:23.665Z,2.00
2022-09-17T14:35:39.828Z,2.03
2022-09-17T14:40:45.910Z,1.90
2022-09-17T14:45:52.054Z,1.90
2022-09-17T14:51:17.384Z,2.83
2022-09-17T14:56:22.264Z,2.45
2022-09-17T15:01:27.010Z,2.22
2022-09-17T15:06:28.625Z,2.30
2022-09-17T15:11:35.454Z,3.00
2022-09-17T15:16:37.793Z,1.65
2022-09-17T15:21:44.690Z,1.83
2022-09-17T15:26:49.661Z,1.67
2022-09-17T15:31:51.420Z,1.98
2022-09-17T15:37:21.647Z,1.92
2022-09-17T15:42:30.067Z,1.67
2022-09-17T15:48:09.057Z,3.17
2022-09-17T15:53:14.570Z,1.95
2022-09-17T15:58:24.945Z,1.83
2022-09-17T16:03:39.431Z,2.13
2022-09-17T16:08:42.528Z,2.38
2022-09-17T16:13:51.177Z,1.90
2022-09-17T16:18:52.963Z,2.58
2022-09-17T16:23:54.670Z,1.67
2022-09-17T16:29:02.207Z,1.67
2022-09-17T16:34:03.837Z,2.10
2022-09-17T16:39:05.466Z,2.63
2022-09-17T16:44:07.195Z,2.67
2022-09-17T16:49:08.810Z,1.98
2022-09-17T16:54:10.452Z,2.17
2022-09-17T16:59:12.077Z,1.70
2022-09-17T17:04:13.675Z,2.35
2022-09-17T17:09:15.402Z,1.70
2022-09-17T17:14:17.014Z,1.88
2022-09-17T17:19:18.603Z,2.13
2022-09-17T17:24:20.249Z,2.25
2022-09-17T17:29:22.218Z,2.22
2022-09-17T17:34:23.957Z,1.15
2022-09-17T17:39:25.615Z,1.60
2022-09-17T17:44:27.197Z,2.00
2022-09-17T17:49:28.785Z,2.20
2022-09-17T17:54:30.536Z,1.30
2022-09-17T17:59:32.242Z,1.30
2022-09-17T18:04:33.883Z,0.90
2022-09-17T18:09:35.898Z,1.15
2022-09-17T18:14:37.493Z,1.17
2022-09-17T18:19:39.099Z,0.93
2022-09-17T18:24:40.707Z,1.00
2022-09-17T18:29:42.340Z,1.33
2022-09-17T18:34:43.924Z,0.93
2022-09-17T18:39:58.028Z,0.90
2022-09-17T18:45:00.316Z,1.25
2022-09-17T18:50:01.928Z,1.05
2022-09-17T18:55:03.661Z,1.75
2022-09-17T19:00:08.247Z,1.10
2022-09-17T19:05:09.894Z,1.25
2022-09-17T19:10:11.511Z,0.95
2022-09-17T19:15:13.139Z,1.10
2022-09-17T19:20:15.071Z,1.67
2022-09-17T19:25:16.803Z,1.10
2022-09-17T19:30:18.470Z,0.82
2022-09-17T19:35:20.096Z,1.42
2022-09-17T19:40:21.788Z,1.13
2022-09-17T19:45:24.503Z,0.73
2022-09-17T19:50:26.126Z,1.20
2022-09-17T19:55:27.717Z,0.70
2022-09-17T20:00:29.962Z,1.20
2022-09-17T20:05:31.682Z,0.77
2022-09-17T20:10:37.382Z,1.17
2022-09-17T20:15:39.039Z,1.10
2022-09-17T20:20:43.761Z,2.08
2022-09-17T20:25:51.956Z,1.00
2022-09-17T20:31:04.869Z,1.20
2022-09-17T20:36:10.843Z,1.20
2022-09-17T20:41:13.742Z,1.10
2022-09-17T20:46:16.872Z,1.20
2022-09-17T20:51:20.888Z,1.20
2022-09-17T20:56:28.514Z,1.20
2022-09-17T21:01:34.467Z,1.00
2022-09-17T21:06:38.991Z,1.25
2022-09-17T21:11:40.654Z,1.10
2022-09-17T21:16:42.425Z,1.13
2022-09-17T21:21:44.540Z,1.17
2022-09-17T21:26:46.219Z,0.93
2022-09-17T21:31:48.053Z,1.10
2022-09-17T21:36:51.543Z,0.93
2022-09-17T21:41:53.364Z,0.80
2022-09-17T21:46:57.574Z,0.70
2022-09-17T21:51:59.332Z,1.13
2022-09-17T21:57:01.077Z,1.05
2022-09-17T22:02:03.989Z,1.40
2022-09-17T22:07:05.642Z,0.90
2022-09-17T22:12:07.635Z,1.00
2022-09-17T22:17:09.271Z,1.00
2022-09-17T22:22:10.853Z,0.90
2022-09-17T22:27:12.473Z,1.25
2022-09-17T22:32:14.073Z,1.20
2022-09-17T22:37:15.829Z,0.80
2022-09-17T22:42:17.430Z,0.88
2022-09-17T22:47:19.009Z,1.20
2022-09-17T22:52:20.607Z,0.75
2022-09-17T22:57:22.203Z,1.25
2022-09-17T23:02:23.845Z,0.82
2022-09-17T23:07:25.464Z,0.88
2022-09-17T23:12:27.100Z,0.80
2022-09-17T23:17:29.545Z,0.73
2022-09-17T23:22:31.421Z,0.90
2022-09-17T23:27:33.025Z,1.00
2022-09-17T23:32:34.615Z,1.10
2022-09-17T23:37:36.256Z,1.10
2022-09-17T23:42:37.979Z,0.98
2022-09-17T23:47:39.593Z,1.58
2022-09-17T23:52:41.383Z,1.27
2022-09-17T23:57:42.973Z,1.20
